createdAt,value
2023-04-20T00:00:36.193Z,1.80
2023-04-20T00:03:04.241Z,2.00
2023-04-20T00:05:33.672Z,1.80
2023-04-20T00:08:01.429Z,1.70
2023-04-20T00:10:29.069Z,1.50
2023-04-20T00:12:56.628Z,1.50
2023-04-20T00:15:24.224Z,1.30
2023-04-20T00:17:52.371Z,1.60
2023-04-20T00:20:20.013Z,1.60
2023-04-20T00:22:48.974Z,1.35
2023-04-20T00:25:16.674Z,1.35
2023-04-20T00:27:45.213Z,1.80
2023-04-20T00:30:14.682Z,1.67
2023-04-20T00:32:42.351Z,1.58
2023-04-20T00:35:10.772Z,1.38
2023-04-20T00:37:38.337Z,1.80
2023-04-20T00:40:09.197Z,1.90
2023-04-20T00:42:40.556Z,2.10
2023-04-20T00:45:09.241Z,1.80
2023-04-20T00:47:38.058Z,1.70
2023-04-20T00:50:07.645Z,1.50
2023-04-20T00:52:35.907Z,1.70
2023-04-20T00:55:04.695Z,1.95
2023-04-20T00:57:33.669Z,1.80
2023-04-20T01:00:02.421Z,1.33
2023-04-20T01:02:30.157Z,1.60
2023-04-20T01:04:58.006Z,1.85
2023-04-20T01:07:25.669Z,2.00
2023-04-20T01:09:53.301Z,1.92
2023-04-20T01:12:20.923Z,2.20
2023-04-20T01:14:49.782Z,1.90
2023-04-20T01:17:20.212Z,2.15
2023-04-20T01:19:49.048Z,1.80
2023-04-20T01:22:19.524Z,1.50
2023-04-20T01:24:47.160Z,2.30
2023-04-20T01:27:16.497Z,2.15
2023-04-20T01:29:44.453Z,1.73
2023-04-20T01:32:12.763Z,1.80
2023-04-20T01:34:41.841Z,1.80
2023-04-20T01:37:09.681Z,1.98
2023-04-20T01:39:41.703Z,2.20
2023-04-20T01:42:09.307Z,2.17
2023-04-20T01:44:36.971Z,2.10
2023-04-20T01:47:04.894Z,2.05
2023-04-20T01:49:33.354Z,1.98
2023-04-20T01:52:00.921Z,2.22
2023-04-20T01:54:28.511Z,1.73
2023-04-20T01:56:57.857Z,1.88
2023-04-20T01:59:26.402Z,2.22
2023-04-20T02:01:54.363Z,2.25
2023-04-20T02:04:22.210Z,2.67
2023-04-20T02:06:49.752Z,2.20
2023-04-20T02:09:17.650Z,2.13
2023-04-20T02:11:45.726Z,2.70
2023-04-20T02:14:14.679Z,2.20
2023-04-20T02:16:42.571Z,2.63
2023-04-20T02:19:10.648Z,2.50
2023-04-20T02:21:38.220Z,3.80
2023-04-20T02:24:06.391Z,2.55
2023-04-20T02:26:33.936Z,1.90
2023-04-20T02:29:01.434Z,2.13
2023-04-20T02:31:30.448Z,1.80
2023-04-20T02:33:58.066Z,2.42
2023-04-20T02:36:28.187Z,2.40
2023-04-20T02:38:55.751Z,2.20
2023-04-20T02:41:23.289Z,3.05
2023-04-20T02:43:50.834Z,2.40
2023-04-20T02:46:18.601Z,2.22
2023-04-20T02:48:47.851Z,2.60
2023-04-20T02:51:15.548Z,2.30
2023-04-20T02:53:45.626Z,2.45
2023-04-20T02:56:21.671Z,2.80
2023-04-20T02:58:55.266Z,3.67
2023-04-20T03:01:30.235Z,2.40
2023-04-20T03:04:06.440Z,2.88
2023-04-20T03:06:40.301Z,2.85
2023-04-20T03:09:11.003Z,2.72
2023-04-20T03:12:08.158Z,2.90
2023-04-20T03:14:48.649Z,3.03
2023-04-20T03:17:17.618Z,3.08
2023-04-20T03:19:46.480Z,2.85
2023-04-20T03:22:14.022Z,2.60
2023-04-20T03:24:41.657Z,2.58
2023-04-20T03:27:25.411Z,3.10
2023-04-20T03:30:03.147Z,2.95
2023-04-20T03:32:32.658Z,3.17
2023-04-20T03:35:02.369Z,3.10
2023-04-20T03:37:30.077Z,2.90
2023-04-20T03:39:57.640Z,2.95
2023-04-20T03:42:26.012Z,3.28
2023-04-20T03:44:55.324Z,3.40
2023-04-20T03:47:22.957Z,3.13
2023-04-20T03:49:51.131Z,4.72
2023-04-20T03:52:20.032Z,4.18
2023-04-20T03:54:47.676Z,3.65
2023-04-20T03:57:16.948Z,5.55
2023-04-20T03:59:45.005Z,6.03
2023-04-20T04:02:17.529Z,2.97
2023-04-20T04:04:47.335Z,5.68
2023-04-20T04:07:14.959Z,4.10
2023-04-20T04:09:45.416Z,3.78
2023-04-20T04:12:13.604Z,5.07
2023-04-20T04:14:41.357Z,3.78
2023-04-20T04:17:10.582Z,4.10
2023-04-20T04:19:43.523Z,4.18
2023-04-20T04:22:11.218Z,4.35
2023-04-20T04:24:49.333Z,4.00
2023-04-20T04:27:19.189Z,4.05
2023-04-20T04:29:54.466Z,3.80
2023-04-20T04:32:24.335Z,4.40
2023-04-20T04:34:53.008Z,3.90
2023-04-20T04:37:20.838Z,3.85
2023-04-20T04:39:53.888Z,6.55
2023-04-20T04:42:27.569Z,4.35
2023-04-20T04:44:56.196Z,4.15
2023-04-20T04:47:30.769Z,4.38
2023-04-20T04:50:00.809Z,4.30
2023-04-20T04:52:29.684Z,4.57
2023-04-20T04:54:58.562Z,4.78
2023-04-20T04:57:27.129Z,4.93
2023-04-20T04:59:55.002Z,5.30
2023-04-20T05:02:22.689Z,4.80
2023-04-20T05:04:50.551Z,4.75
2023-04-20T05:07:18.643Z,4.50
2023-04-20T05:09:46.180Z,5.10
2023-04-20T05:12:15.279Z,5.05
2023-04-20T05:14:42.881Z,4.57
2023-04-20T05:17:10.437Z,5.32
2023-04-20T05:19:37.996Z,4.90
2023-04-20T05:22:05.677Z,4.75
2023-04-20T05:24:33.381Z,5.45
2023-04-20T05:27:01.515Z,5.45
2023-04-20T05:29:30.509Z,6.15
2023-04-20T05:31:58.173Z,5.28
2023-04-20T05:34:25.683Z,5.72
2023-04-20T05:36:54.706Z,5.53
2023-04-20T05:39:22.271Z,6.00
2023-04-20T05:41:49.870Z,5.75
2023-04-20T05:44:17.434Z,4.78
2023-04-20T05:46:46.333Z,5.90
2023-04-20T05:49:13.853Z,5.88
2023-04-20T05:51:41.408Z,6.22
2023-04-20T05:54:09.791Z,5.85
2023-04-20T05:56:37.342Z,6.63
2023-04-20T05:59:05.741Z,6.75
2023-04-20T06:01:33.306Z,6.30
2023-04-20T06:04:02.378Z,5.88
2023-04-20T06:06:30.776Z,6.80
2023-04-20T06:08:58.352Z,6.30
2023-04-20T06:11:26.069Z,6.00
2023-04-20T06:13:53.781Z,5.93
2023-04-20T06:16:21.447Z,6.57
2023-04-20T06:18:49.075Z,6.40
2023-04-20T06:21:18.357Z,7.55
2023-04-20T06:23:45.902Z,6.32
2023-04-20T06:26:13.758Z,6.63
2023-04-20T06:28:41.568Z,5.82
2023-04-20T06:31:09.721Z,7.45
2023-04-20T06:33:37.299Z,7.25
2023-04-20T06:36:07.745Z,7.32
2023-04-20T06:38:36.903Z,7.65
2023-04-20T06:41:04.774Z,7.40
2023-04-20T06:43:32.440Z,8.43
2023-04-20T06:45:59.997Z,7.28
2023-04-20T06:48:31.491Z,8.00
2023-04-20T06:51:00.992Z,7.35
2023-04-20T06:53:28.627Z,7.35
2023-04-20T06:55:58.316Z,7.63
2023-04-20T06:58:25.857Z,7.75
2023-04-20T07:00:53.474Z,6.78
2023-04-20T07:03:21.760Z,7.25
2023-04-20T07:05:49.449Z,9.02
2023-04-20T07:08:17.019Z,6.78
2023-04-20T07:10:44.685Z,8.15
2023-04-20T07:13:13.719Z,7.75
2023-04-20T07:15:41.347Z,8.48
2023-04-20T07:18:09.002Z,7.28
2023-04-20T07:20:36.607Z,7.65
2023-04-20T07:23:04.109Z,8.10
2023-04-20T07:25:32.932Z,7.85
2023-04-20T07:28:00.798Z,6.95
2023-04-20T07:30:31.215Z,7.78
2023-04-20T07:32:59.006Z,7.97
2023-04-20T07:35:26.660Z,7.93
2023-04-20T07:37:54.710Z,8.18
2023-04-20T07:40:22.745Z,8.60
2023-04-20T07:42:50.742Z,8.70
2023-04-20T07:45:18.339Z,8.43
2023-04-20T07:47:51.268Z,8.00
2023-04-20T07:50:19.320Z,9.30
2023-04-20T07:52:47.002Z,9.23
2023-04-20T07:55:15.811Z,9.60
2023-04-20T07:57:43.480Z,8.05
2023-04-20T08:00:12.846Z,8.30
2023-04-20T08:02:40.877Z,9.55
2023-04-20T08:05:11.871Z,8.10
2023-04-20T08:07:39.634Z,9.57
2023-04-20T08:10:08.217Z,8.68
2023-04-20T08:12:35.793Z,8.45
2023-04-20T08:15:06.353Z,9.27
2023-04-20T08:17:34.151Z,9.60
2023-04-20T08:20:02.165Z,9.57
2023-04-20T08:22:32.143Z,9.70
2023-04-20T08:24:59.898Z,9.23
2023-04-20T08:27:29.691Z,9.05
2023-04-20T08:29:57.477Z,9.70
2023-04-20T08:32:26.602Z,8.57
2023-04-20T08:34:54.628Z,8.90
2023-04-20T08:37:22.272Z,8.85
2023-04-20T08:39:51.264Z,9.85
2023-04-20T08:42:18.936Z,9.68
2023-04-20T08:44:46.585Z,9.45
2023-04-20T08:47:15.282Z,9.30
2023-04-20T08:49:45.206Z,10.30
2023-04-20T08:52:13.067Z,10.10
2023-04-20T08:54:55.295Z,10.80
2023-04-20T08:57:25.688Z,10.60
2023-04-20T08:59:53.373Z,9.40
2023-04-20T09:02:22.016Z,9.07
2023-04-20T09:04:49.883Z,10.00
2023-04-20T09:07:19.798Z,10.50
2023-04-20T09:09:57.150Z,10.18
2023-04-20T09:12:26.600Z,9.40
2023-04-20T09:14:54.862Z,10.52
2023-04-20T09:17:33.857Z,10.32
2023-04-20T09:20:01.947Z,11.65
2023-04-20T09:22:33.940Z,9.43
2023-04-20T09:25:02.354Z,9.45
2023-04-20T09:27:31.639Z,9.43
2023-04-20T09:30:00.191Z,9.63
2023-04-20T09:32:29.342Z,8.73
2023-04-20T09:34:57.464Z,8.45
2023-04-20T09:37:25.585Z,8.60
2023-04-20T09:39:59.494Z,9.60
2023-04-20T09:42:28.844Z,9.02
2023-04-20T09:44:58.625Z,8.43
2023-04-20T09:47:27.265Z,9.27
2023-04-20T09:49:56.371Z,9.07
2023-04-20T09:52:25.683Z,9.32
2023-04-20T09:54:53.926Z,8.60
2023-04-20T09:57:22.558Z,10.27
2023-04-20T09:59:53.379Z,9.85
2023-04-20T10:02:22.529Z,10.07
2023-04-20T10:04:54.634Z,9.18
2023-04-20T10:07:27.026Z,9.48
2023-04-20T10:10:05.557Z,9.10
2023-04-20T10:12:35.717Z,8.70
2023-04-20T10:15:04.410Z,7.53
2023-04-20T10:17:34.849Z,7.90
2023-04-20T10:20:04.577Z,7.90
2023-04-20T10:22:33.796Z,6.95
2023-04-20T10:25:02.278Z,6.78
2023-04-20T10:27:32.102Z,7.10
2023-04-20T10:30:10.821Z,7.00
2023-04-20T10:32:39.848Z,6.38
2023-04-20T10:35:09.500Z,6.57
2023-04-20T10:37:47.870Z,6.53
2023-04-20T10:40:15.589Z,6.28
2023-04-20T10:42:44.309Z,6.03
2023-04-20T10:45:13.000Z,6.25
2023-04-20T10:47:42.044Z,5.32
2023-04-20T10:50:11.683Z,6.15
2023-04-20T10:52:42.052Z,6.45
2023-04-20T10:55:20.481Z,5.53
2023-04-20T10:57:48.594Z,6.25
2023-04-20T11:00:18.053Z,5.88
2023-04-20T11:02:54.505Z,5.63
2023-04-20T11:05:23.942Z,5.78
2023-04-20T11:07:55.034Z,5.57
2023-04-20T11:10:24.517Z,5.88
2023-04-20T11:12:53.105Z,5.47
2023-04-20T11:15:20.951Z,5.55
2023-04-20T11:17:48.534Z,6.07
2023-04-20T11:20:18.407Z,5.40
2023-04-20T11:22:57.223Z,5.28
2023-04-20T11:25:24.983Z,5.43
2023-04-20T11:27:52.557Z,5.65
2023-04-20T11:30:21.017Z,5.95
2023-04-20T11:32:55.701Z,5.65
2023-04-20T11:35:24.902Z,6.13
2023-04-20T11:37:53.774Z,5.22
2023-04-20T11:40:21.607Z,6.00
2023-04-20T11:42:49.246Z,6.10
2023-04-20T11:45:17.823Z,5.97
2023-04-20T11:47:45.948Z,5.72
2023-04-20T11:50:14.270Z,6.53
2023-04-20T11:52:43.310Z,7.00
2023-04-20T11:55:11.333Z,6.18
2023-04-20T11:57:38.944Z,6.78
2023-04-20T12:00:08.287Z,7.20
2023-04-20T12:02:41.496Z,7.07
2023-04-20T12:05:12.049Z,6.68
2023-04-20T12:07:39.685Z,7.13
2023-04-20T12:10:10.246Z,6.72
2023-04-20T12:12:38.477Z,6.47
2023-04-20T12:15:07.455Z,6.60
2023-04-20T12:17:35.186Z,6.25
2023-04-20T12:20:02.810Z,7.10
2023-04-20T12:22:30.408Z,6.35
2023-04-20T12:24:57.956Z,6.45
2023-04-20T12:27:27.909Z,7.43
2023-04-20T12:29:55.480Z,6.85
2023-04-20T12:32:23.153Z,6.63
2023-04-20T12:34:51.428Z,7.40
2023-04-20T12:37:20.153Z,7.18
2023-04-20T12:39:47.844Z,7.80
2023-04-20T12:42:15.891Z,6.88
2023-04-20T12:44:44.738Z,9.25
2023-04-20T12:47:13.536Z,7.53
2023-04-20T12:49:41.130Z,7.93
2023-04-20T12:52:08.981Z,8.25
2023-04-20T12:54:36.847Z,8.18
2023-04-20T12:57:04.833Z,8.48
2023-04-20T12:59:32.740Z,8.70
2023-04-20T13:02:01.888Z,9.35
2023-04-20T13:04:29.725Z,9.00
2023-04-20T13:06:57.403Z,8.73
2023-04-20T13:09:26.942Z,8.20
2023-04-20T13:11:54.686Z,8.60
2023-04-20T13:14:22.298Z,8.18
2023-04-20T13:16:50.595Z,7.25
2023-04-20T13:19:20.673Z,7.57
2023-04-20T13:21:48.257Z,7.93
2023-04-20T13:24:16.369Z,8.15
2023-04-20T13:26:44.363Z,8.25
2023-04-20T13:29:11.964Z,8.30
2023-04-20T13:31:40.557Z,8.38
2023-04-20T13:34:08.164Z,8.98
2023-04-20T13:36:37.122Z,9.07
2023-04-20T13:39:04.942Z,9.55
2023-04-20T13:41:32.556Z,9.23
2023-04-20T13:44:01.300Z,9.05
2023-04-20T13:46:29.015Z,8.75
2023-04-20T13:48:56.554Z,8.68
2023-04-20T13:51:24.363Z,8.90
2023-04-20T13:53:53.401Z,9.23
2023-04-20T13:56:21.117Z,9.15
2023-04-20T13:58:48.785Z,8.88
2023-04-20T14:01:17.487Z,9.52
2023-04-20T14:03:45.281Z,8.88
2023-04-20T14:06:13.059Z,8.57
2023-04-20T14:08:40.692Z,8.30
2023-04-20T14:11:09.597Z,8.88
2023-04-20T14:13:37.539Z,8.85
2023-04-20T14:16:09.189Z,8.85
2023-04-20T14:18:36.870Z,9.45
2023-04-20T14:21:05.033Z,8.15
2023-04-20T14:23:32.785Z,8.23
2023-04-20T14:26:00.981Z,9.43
2023-04-20T14:28:31.847Z,8.57
2023-04-20T14:31:02.436Z,8.73
2023-04-20T14:33:30.361Z,9.02
2023-04-20T14:35:58.278Z,8.65
2023-04-20T14:38:25.896Z,9.32
2023-04-20T14:40:53.896Z,8.65
2023-04-20T14:43:21.996Z,10.00
2023-04-20T14:45:51.561Z,9.00
2023-04-20T14:48:19.232Z,8.63
2023-04-20T14:50:47.427Z,9.38
2023-04-20T14:53:15.136Z,9.85
2023-04-20T14:55:42.848Z,8.77
2023-04-20T14:58:10.761Z,10.50
2023-04-20T15:00:38.577Z,9.05
2023-04-20T15:03:07.690Z,11.82
2023-04-20T15:05:35.719Z,9.70
2023-04-20T15:08:03.459Z,9.25
2023-04-20T15:10:31.233Z,10.15
2023-04-20T15:12:58.805Z,9.38
2023-04-20T15:15:37.707Z,8.88
2023-04-20T15:18:16.517Z,9.30
2023-04-20T15:20:44.203Z,9.80
2023-04-20T15:23:12.268Z,9.30
2023-04-20T15:25:39.895Z,8.85
2023-04-20T15:28:07.541Z,9.38
2023-04-20T15:30:35.477Z,9.98
2023-04-20T15:33:04.384Z,8.60
2023-04-20T15:35:33.980Z,8.27
2023-04-20T15:38:01.777Z,8.07
2023-04-20T15:40:29.498Z,8.27
2023-04-20T15:42:57.145Z,8.90
2023-04-20T15:45:25.133Z,7.45
2023-04-20T15:47:52.798Z,8.52
2023-04-20T15:50:20.621Z,7.78
2023-04-20T15:52:50.806Z,8.23
2023-04-20T15:55:18.523Z,8.52
2023-04-20T15:57:46.155Z,9.07
2023-04-20T16:00:15.056Z,8.25
2023-04-20T16:02:42.910Z,8.20
2023-04-20T16:05:10.818Z,8.85
2023-04-20T16:07:39.438Z,8.20
2023-04-20T16:10:12.369Z,7.90
2023-04-20T16:12:40.213Z,7.38
2023-04-20T16:15:09.722Z,6.72
2023-04-20T16:17:37.423Z,6.60
2023-04-20T16:20:05.770Z,7.22
2023-04-20T16:22:33.576Z,7.50
2023-04-20T16:25:02.213Z,7.15
2023-04-20T16:27:33.662Z,6.60
2023-04-20T16:30:01.347Z,7.15
2023-04-20T16:32:29.064Z,7.82
2023-04-20T16:34:56.674Z,7.43
2023-04-20T16:37:26.745Z,7.47
2023-04-20T16:39:54.546Z,7.70
2023-04-20T16:42:22.417Z,9.18
2023-04-20T16:44:51.566Z,8.68
2023-04-20T16:47:19.627Z,7.70
2023-04-20T16:49:47.683Z,6.85
2023-04-20T16:52:15.397Z,7.88
2023-04-20T16:54:43.234Z,9.60
2023-04-20T16:57:10.980Z,6.75
2023-04-20T16:59:38.747Z,11.48
2023-04-20T17:02:08.765Z,7.43
2023-04-20T17:04:37.207Z,7.05
2023-04-20T17:07:05.535Z,7.07
2023-04-20T17:09:33.377Z,7.80
2023-04-20T17:12:04.442Z,7.50
2023-04-20T17:14:32.771Z,9.10
2023-04-20T17:17:00.676Z,7.38
2023-04-20T17:19:30.731Z,9.10
2023-04-20T17:21:59.079Z,7.97
2023-04-20T17:24:26.725Z,8.70
2023-04-20T17:26:54.362Z,8.27
2023-04-20T17:29:21.944Z,7.43
2023-04-20T17:31:51.614Z,6.70
2023-04-20T17:34:19.983Z,8.80
2023-04-20T17:36:49.279Z,7.30
2023-04-20T17:39:20.279Z,7.70
2023-04-20T17:41:47.871Z,7.88
2023-04-20T17:44:15.817Z,7.65
2023-04-20T17:46:43.744Z,7.57
2023-04-20T17:49:11.557Z,10.57
2023-04-20T17:51:39.475Z,8.27
2023-04-20T17:54:08.407Z,8.20
2023-04-20T17:56:36.294Z,7.72
2023-04-20T17:59:05.040Z,8.10
2023-04-20T18:01:34.787Z,7.30
2023-04-20T18:04:02.860Z,8.02
2023-04-20T18:06:33.267Z,7.93
2023-04-20T18:09:01.023Z,9.02
2023-04-20T18:11:30.112Z,7.63
2023-04-20T18:13:57.959Z,8.55
2023-04-20T18:16:25.881Z,8.48
2023-04-20T18:18:53.653Z,8.38
2023-04-20T18:21:24.464Z,7.65
2023-04-20T18:23:52.493Z,7.18
2023-04-20T18:26:20.567Z,6.80
2023-04-20T18:28:49.647Z,8.20
2023-04-20T18:31:17.956Z,9.35
2023-04-20T18:33:46.234Z,7.95
2023-04-20T18:36:13.978Z,8.88
2023-04-20T18:38:41.908Z,6.95
2023-04-20T18:41:09.695Z,8.65
2023-04-20T18:43:37.343Z,7.95
2023-04-20T18:46:06.353Z,7.47
2023-04-20T18:48:34.123Z,7.85
2023-04-20T18:51:01.869Z,8.25
2023-04-20T18:53:29.620Z,8.65
2023-04-20T18:55:59.110Z,7.90
2023-04-20T18:58:26.739Z,8.07
2023-04-20T19:00:54.693Z,8.90
2023-04-20T19:03:24.040Z,8.35
2023-04-20T19:05:52.018Z,8.50
2023-04-20T19:08:19.664Z,7.43
2023-04-20T19:10:47.594Z,8.55
2023-04-20T19:13:17.799Z,7.60
2023-04-20T19:15:45.733Z,8.23
2023-04-20T19:18:15.043Z,7.70
2023-04-20T19:20:44.505Z,8.02
2023-04-20T19:23:12.601Z,8.05
2023-04-20T19:25:40.659Z,8.10
2023-04-20T19:28:12.137Z,8.10
2023-04-20T19:30:40.695Z,8.40
2023-04-20T19:33:08.538Z,8.43
2023-04-20T19:35:36.277Z,8.93
2023-04-20T19:38:08.604Z,8.38
2023-04-20T19:40:36.654Z,9.02
2023-04-20T19:43:05.006Z,8.18
2023-04-20T19:45:32.756Z,8.15
2023-04-20T19:48:03.749Z,9.18
2023-04-20T19:50:32.134Z,8.77
2023-04-20T19:53:00.051Z,8.38
2023-04-20T19:55:29.256Z,8.73
2023-04-20T19:57:56.941Z,8.27
2023-04-20T20:00:24.732Z,9.02
2023-04-20T20:02:52.687Z,8.25
2023-04-20T20:05:20.546Z,8.55
2023-04-20T20:07:48.159Z,8.63
2023-04-20T20:10:15.781Z,8.20
2023-04-20T20:12:45.884Z,8.20
2023-04-20T20:15:13.863Z,8.57
2023-04-20T20:17:41.810Z,8.88
2023-04-20T20:20:10.091Z,9.00
2023-04-20T20:22:37.916Z,9.10
2023-04-20T20:25:07.015Z,8.98
2023-04-20T20:27:35.080Z,8.45
2023-04-20T20:30:05.317Z,8.93
2023-04-20T20:32:33.029Z,8.43
2023-04-20T20:35:00.825Z,8.27
2023-04-20T20:37:34.988Z,8.52
2023-04-20T20:40:07.280Z,8.23
2023-04-20T20:42:35.115Z,8.75
2023-04-20T20:45:04.425Z,9.23
2023-04-20T20:47:32.106Z,8.80
2023-04-20T20:49:59.768Z,8.63
2023-04-20T20:52:27.351Z,8.82
2023-04-20T20:54:54.858Z,9.43
2023-04-20T20:57:22.508Z,8.68
2023-04-20T20:59:51.749Z,8.70
2023-04-20T21:02:22.864Z,9.50
2023-04-20T21:04:50.660Z,9.48
2023-04-20T21:07:18.349Z,7.95
2023-04-20T21:09:46.500Z,8.82
2023-04-20T21:12:14.027Z,8.98
2023-04-20T21:14:41.546Z,8.98
2023-04-20T21:17:09.075Z,8.77
2023-04-20T21:19:38.107Z,8.02
2023-04-20T21:22:05.820Z,8.52
2023-04-20T21:24:33.392Z,8.48
2023-04-20T21:27:01.245Z,8.90
2023-04-20T21:29:28.786Z,8.90
2023-04-20T21:31:56.425Z,8.45
2023-04-20T21:34:24.135Z,9.38
2023-04-20T21:36:53.111Z,9.70
2023-04-20T21:39:20.896Z,9.60
2023-04-20T21:41:48.628Z,9.02
2023-04-20T21:44:16.285Z,9.85
2023-04-20T21:46:44.009Z,9.50
2023-04-20T21:49:11.533Z,10.30
2023-04-20T21:51:39.243Z,10.40
2023-04-20T21:54:08.283Z,9.95
2023-04-20T21:56:35.855Z,10.63
2023-04-20T21:59:03.412Z,10.02
2023-04-20T22:01:31.015Z,10.50
2023-04-20T22:03:58.827Z,10.75
2023-04-20T22:06:26.799Z,10.75
2023-04-20T22:08:54.420Z,10.55
2023-04-20T22:11:23.629Z,9.50
2023-04-20T22:13:51.447Z,9.93
2023-04-20T22:16:21.020Z,9.32
2023-04-20T22:18:48.903Z,10.02
2023-04-20T22:21:16.574Z,9.45
2023-04-20T22:23:44.095Z,10.40
2023-04-20T22:26:12.198Z,9.25
2023-04-20T22:28:41.395Z,10.25
2023-04-20T22:31:09.040Z,10.48
2023-04-20T22:33:36.966Z,10.00
2023-04-20T22:36:04.924Z,10.70
2023-04-20T22:38:35.407Z,10.13
2023-04-20T22:41:03.077Z,9.75
2023-04-20T22:43:33.038Z,9.77
2023-04-20T22:46:04.117Z,10.27
2023-04-20T22:48:31.713Z,10.10
2023-04-20T22:51:00.620Z,9.65
2023-04-20T22:53:29.768Z,10.00
2023-04-20T22:56:03.709Z,10.55
2023-04-20T22:58:31.374Z,8.70
2023-04-20T23:00:59.044Z,9.65
2023-04-20T23:03:28.196Z,9.48
2023-04-20T23:05:57.308Z,9.90
2023-04-20T23:08:25.600Z,10.38
2023-04-20T23:10:54.608Z,10.80
2023-04-20T23:13:24.512Z,10.27
2023-04-20T23:15:52.126Z,10.80
2023-04-20T23:18:19.849Z,11.43
2023-04-20T23:20:48.727Z,10.60
2023-04-20T23:23:16.312Z,10.00
2023-04-20T23:25:43.857Z,10.55
2023-04-20T23:28:11.366Z,10.40
2023-04-20T23:30:38.910Z,10.25
2023-04-20T23:33:06.521Z,11.68
2023-04-20T23:35:34.308Z,10.50
2023-04-20T23:38:04.041Z,10.05
2023-04-20T23:40:32.024Z,10.32
2023-04-20T23:42:59.637Z,10.05
2023-04-20T23:45:27.535Z,9.77
2023-04-20T23:47:55.352Z,9.73
2023-04-20T23:50:23.040Z,9.82
2023-04-20T23:52:50.640Z,10.35
2023-04-20T23:55:19.773Z,9.68
2023-04-20T23:57:47.760Z,9.45
